createdAt,value
2019-02-10T00:14:23.202Z,7.80
2019-02-10T00:16:52.273Z,8.00
2019-02-10T00:19:21.312Z,8.10
2019-02-10T00:21:50.308Z,7.90
2019-02-10T00:24:19.412Z,8.10
2019-02-10T00:26:48.434Z,8.00
2019-02-10T00:29:17.618Z,8.00
2019-02-10T00:31:46.638Z,7.80
2019-02-10T00:34:15.681Z,7.70
2019-02-10T00:36:44.690Z,7.60
2019-02-10T00:39:13.732Z,7.60
2019-02-10T00:41:42.742Z,7.60
2019-02-10T00:44:11.763Z,7.60
2019-02-10T00:46:40.772Z,7.60
2019-02-10T00:49:09.893Z,7.50
2019-02-10T00:51:38.973Z,7.30
2019-02-10T00:54:08.182Z,7.20
2019-02-10T00:56:37.204Z,7.20
2019-02-10T00:59:06.229Z,7.10
2019-02-10T01:01:35.333Z,7.10
2019-02-10T01:04:04.536Z,7.10
2019-02-10T01:06:40.948Z,7.10
2019-02-10T01:09:05.445Z,7.10
2019-02-10T01:11:34.555Z,7.10
2019-02-10T01:14:03.690Z,7.10
2019-02-10T01:16:32.724Z,6.90
2019-02-10T01:19:06.339Z,6.60
2019-02-10T01:21:35.423Z,6.70
2019-02-10T01:24:04.467Z,6.90
2019-02-10T01:26:33.666Z,6.80
2019-02-10T01:29:02.903Z,6.80
2019-02-10T01:31:32.007Z,6.70
2019-02-10T01:34:01.035Z,6.40
2019-02-10T01:36:30.110Z,6.50
2019-02-10T01:38:59.381Z,6.50
2019-02-10T01:41:28.407Z,6.40
2019-02-10T01:43:58.200Z,6.30
2019-02-10T01:46:27.227Z,6.30
2019-02-10T01:48:56.373Z,6.30
2019-02-10T01:51:25.470Z,6.30
2019-02-10T01:53:54.611Z,6.30
2019-02-10T01:56:23.625Z,6.30
2019-02-10T01:58:52.659Z,6.40
2019-02-10T02:01:21.796Z,6.50
2019-02-10T02:03:50.809Z,6.50
2019-02-10T02:06:19.917Z,6.60
2019-02-10T02:08:48.941Z,6.40
2019-02-10T02:11:18.017Z,6.50
2019-02-10T02:13:47.035Z,6.60
2019-02-10T02:16:16.186Z,6.60
2019-02-10T02:18:45.241Z,6.60
2019-02-10T02:21:14.345Z,6.60
2019-02-10T02:23:43.440Z,6.50
2019-02-10T02:26:12.493Z,6.60
2019-02-10T02:28:41.599Z,6.50
2019-02-10T02:31:10.751Z,6.50
2019-02-10T02:33:39.818Z,6.60
2019-02-10T02:36:08.926Z,6.50
2019-02-10T02:38:37.930Z,6.60
2019-02-10T02:41:06.979Z,6.50
2019-02-10T02:43:36.073Z,6.30
2019-02-10T02:46:05.216Z,6.30
2019-02-10T02:48:34.287Z,6.60
2019-02-10T02:51:03.404Z,6.60
2019-02-10T02:53:32.496Z,6.50
2019-02-10T02:56:01.531Z,6.50
2019-02-10T02:58:30.541Z,6.60
2019-02-10T03:10:54.271Z,6.60
2019-02-10T03:13:23.376Z,6.60
2019-02-10T03:15:52.489Z,6.50
2019-02-10T03:18:21.487Z,6.50
2019-02-10T03:20:50.616Z,6.50
2019-02-10T03:23:19.624Z,6.50
2019-02-10T03:25:48.705Z,6.40
2019-02-10T03:28:17.696Z,6.40
2019-02-10T03:30:46.789Z,6.40
2019-02-10T03:33:15.789Z,6.50
2019-02-10T03:35:44.863Z,6.40
2019-02-10T03:38:14.057Z,6.50
2019-02-10T03:40:43.160Z,6.50
2019-02-10T03:43:12.272Z,6.60
2019-02-10T03:45:41.325Z,6.60
2019-02-10T03:48:10.337Z,6.70
2019-02-10T03:50:39.367Z,6.70
2019-02-10T03:53:08.460Z,6.80
2019-02-10T03:55:37.505Z,6.80
2019-02-10T03:58:06.614Z,6.80
2019-02-10T04:00:35.705Z,6.80
2019-02-10T04:03:04.681Z,6.90
2019-02-10T04:05:33.779Z,7.00
2019-02-10T04:08:03.068Z,7.00
2019-02-10T04:10:32.267Z,7.00
2019-02-10T04:13:01.307Z,7.00
2019-02-10T04:15:30.511Z,7.00
2019-02-10T04:17:59.548Z,6.90
2019-02-10T04:20:28.643Z,6.90
2019-02-10T04:22:57.680Z,6.80
2019-02-10T04:25:26.776Z,6.80
2019-02-10T04:27:55.808Z,6.90
2019-02-10T04:30:24.899Z,6.90
2019-02-10T04:32:54.047Z,6.90
2019-02-10T04:35:23.065Z,7.00
2019-02-10T04:37:52.118Z,6.90
2019-02-10T04:40:21.151Z,7.00
2019-02-10T04:42:50.284Z,7.00
2019-02-10T04:45:19.314Z,7.00
2019-02-10T04:47:48.446Z,7.00
2019-02-10T04:50:17.536Z,7.00
2019-02-10T04:52:46.567Z,7.00
2019-02-10T04:55:15.680Z,7.10
2019-02-10T04:57:44.724Z,7.10
2019-02-10T05:00:13.763Z,7.10
2019-02-10T05:02:42.837Z,7.00
2019-02-10T05:05:11.924Z,7.10
2019-02-10T05:07:41.100Z,7.10
2019-02-10T05:10:10.140Z,7.10
2019-02-10T05:12:39.194Z,7.00
2019-02-10T05:15:08.232Z,6.90
2019-02-10T05:17:37.303Z,6.90
2019-02-10T05:20:06.864Z,6.80
2019-02-10T05:22:35.952Z,6.80
2019-02-10T05:25:05.863Z,6.70
2019-02-10T05:27:34.962Z,6.60
2019-02-10T05:30:04.122Z,6.50
2019-02-10T05:32:33.166Z,6.50
2019-02-10T05:35:02.226Z,6.40
2019-02-10T05:37:31.274Z,6.40
2019-02-10T05:40:00.361Z,6.30
2019-02-10T05:42:29.418Z,6.30
2019-02-10T05:44:58.552Z,6.30
2019-02-10T05:47:27.576Z,6.30
2019-02-10T05:49:56.614Z,6.30
2019-02-10T05:52:25.694Z,6.30
2019-02-10T05:54:54.804Z,6.20
2019-02-10T05:57:23.825Z,6.20
2019-02-10T05:59:52.885Z,6.20
2019-02-10T06:02:32.374Z,6.30
2019-02-10T06:05:07.585Z,6.20
2019-02-10T06:07:36.608Z,6.20
2019-02-10T06:10:06.221Z,6.20
2019-02-10T06:12:35.249Z,6.10
2019-02-10T06:15:04.309Z,6.10
2019-02-10T06:17:33.445Z,6.10
2019-02-10T06:20:02.456Z,6.20
2019-02-10T06:22:31.491Z,6.20
2019-02-10T06:25:00.559Z,6.10
2019-02-10T06:27:29.592Z,6.10
2019-02-10T06:29:58.691Z,6.00
2019-02-10T06:32:27.795Z,6.00
2019-02-10T06:34:56.932Z,5.90
2019-02-10T06:37:26.050Z,5.90
2019-02-10T06:39:55.077Z,5.90
2019-02-10T06:42:24.111Z,5.90
2019-02-10T06:44:53.154Z,5.90
2019-02-10T06:47:22.157Z,5.90
2019-02-10T06:49:51.235Z,5.90
2019-02-10T06:52:20.359Z,5.90
2019-02-10T06:54:53.155Z,5.90
2019-02-10T06:57:24.129Z,5.90
2019-02-10T07:00:12.212Z,5.80
2019-02-10T07:03:23.900Z,5.80
2019-02-10T07:05:53.295Z,5.80
2019-02-10T07:08:30.191Z,5.80
2019-02-10T07:10:53.052Z,5.80
2019-02-10T07:13:34.505Z,5.80
2019-02-10T07:16:46.883Z,5.80
2019-02-10T07:19:52.179Z,5.90
2019-02-10T07:23:01.838Z,5.90
2019-02-10T07:25:51.693Z,5.80
2019-02-10T07:28:49.536Z,5.90
2019-02-10T07:31:23.758Z,5.90
2019-02-10T07:34:48.334Z,5.90
2019-02-10T07:37:31.004Z,5.90
2019-02-10T07:40:23.333Z,5.90
2019-02-10T07:43:23.231Z,6.00
2019-02-10T07:46:31.600Z,5.90
2019-02-10T07:49:25.434Z,6.00
2019-02-10T07:52:44.706Z,6.00
2019-02-10T07:56:10.799Z,6.00
2019-02-10T07:59:16.280Z,5.90
2019-02-10T08:02:45.034Z,5.90
2019-02-10T08:05:51.055Z,5.90
2019-02-10T08:09:04.420Z,6.00
2019-02-10T08:11:56.373Z,6.00
2019-02-10T08:15:05.151Z,6.00
2019-02-10T08:18:03.793Z,5.70
2019-02-10T08:21:18.425Z,6.10
2019-02-10T08:24:31.836Z,6.10
2019-02-10T08:52:32.719Z,6.70
2019-02-10T08:55:02.540Z,6.70
2019-02-10T08:57:31.807Z,6.70
2019-02-10T09:00:00.844Z,6.80
2019-02-10T09:02:29.876Z,6.80
2019-02-10T09:04:58.993Z,6.80
2019-02-10T09:07:28.820Z,6.90
2019-02-10T09:09:57.881Z,6.90
2019-02-10T09:12:26.935Z,6.90
2019-02-10T09:14:56.029Z,7.00
2019-02-10T09:17:25.051Z,7.00
2019-02-10T09:19:54.165Z,7.00
2019-02-10T09:22:23.281Z,7.10
2019-02-10T09:24:52.342Z,7.10
2019-02-10T09:27:21.336Z,7.10
2019-02-10T09:29:50.362Z,7.10
2019-02-10T09:32:19.427Z,7.10
2019-02-10T09:34:48.491Z,7.10
2019-02-10T09:37:17.522Z,7.10
2019-02-10T09:39:46.624Z,7.10
2019-02-10T09:42:15.642Z,7.10
2019-02-10T09:44:44.733Z,7.10
2019-02-10T09:47:13.866Z,7.20
2019-02-10T09:49:42.904Z,7.20
2019-02-10T09:52:12.001Z,7.20
2019-02-10T09:54:41.188Z,7.30
2019-02-10T09:57:10.346Z,7.40
2019-02-10T09:59:40.158Z,7.20
2019-02-10T10:02:09.194Z,7.40
2019-02-10T10:04:39.633Z,7.40
2019-02-10T10:07:09.392Z,7.50
2019-02-10T10:09:38.611Z,7.60
2019-02-10T10:12:07.618Z,7.60
2019-02-10T10:14:36.683Z,7.50
2019-02-10T10:17:05.768Z,7.60
2019-02-10T10:19:34.819Z,7.80
2019-02-10T10:22:03.892Z,7.90
2019-02-10T10:24:32.956Z,7.90
2019-02-10T10:27:01.971Z,8.00
2019-02-10T10:29:31.067Z,8.10
2019-02-10T10:32:00.182Z,8.10
2019-02-10T10:34:29.304Z,8.00
2019-02-10T10:36:58.426Z,8.20
2019-02-10T10:39:27.766Z,8.30
2019-02-10T10:41:56.824Z,8.30
2019-02-10T10:44:26.150Z,8.30
2019-02-10T10:46:55.173Z,8.20
2019-02-10T10:49:24.202Z,8.40
2019-02-10T10:51:53.432Z,8.40
2019-02-10T10:54:24.472Z,8.40
2019-02-10T10:56:53.510Z,8.50
2019-02-10T10:59:22.659Z,8.50
2019-02-10T11:01:51.772Z,8.60
2019-02-10T11:04:20.802Z,8.60
2019-02-10T11:06:49.850Z,8.70
2019-02-10T11:09:18.879Z,8.60
2019-02-10T11:11:48.015Z,8.70
2019-02-10T11:14:17.139Z,8.70
2019-02-10T11:16:46.168Z,8.60
2019-02-10T11:19:15.170Z,8.60
2019-02-10T11:21:44.269Z,8.70
2019-02-10T11:24:13.351Z,8.70
2019-02-10T11:26:42.388Z,8.70
2019-02-10T11:29:11.485Z,8.70
2019-02-10T11:31:40.522Z,8.80
2019-02-10T11:34:09.558Z,8.70
2019-02-10T11:36:38.716Z,8.60
2019-02-10T11:39:07.737Z,8.70
2019-02-10T11:41:36.786Z,8.50
2019-02-10T11:44:05.909Z,8.60
2019-02-10T11:46:35.022Z,8.70
2019-02-10T11:49:04.099Z,8.70
2019-02-10T11:51:33.288Z,8.70
2019-02-10T11:54:04.480Z,8.80
2019-02-10T11:56:33.574Z,8.60
2019-02-10T11:59:03.304Z,8.70
2019-02-10T12:01:36.293Z,8.60
2019-02-10T12:04:05.579Z,8.60
2019-02-10T12:06:36.685Z,8.50
2019-02-10T12:09:06.376Z,8.50
2019-02-10T12:11:35.441Z,8.60
2019-02-10T12:14:04.442Z,8.50
2019-02-10T12:16:38.328Z,8.50
2019-02-10T12:19:07.412Z,8.40
2019-02-10T12:21:36.449Z,8.40
2019-02-10T12:24:05.535Z,8.30
2019-02-10T12:26:34.865Z,8.30
2019-02-10T12:29:03.908Z,8.20
2019-02-10T12:34:04.910Z,8.50
2019-02-10T12:36:33.959Z,8.50
2019-02-10T12:39:03.144Z,8.30
2019-02-10T12:41:37.456Z,8.40
2019-02-10T12:44:06.579Z,8.40
2019-02-10T12:46:37.652Z,8.30
2019-02-10T12:49:06.760Z,8.00
2019-02-10T12:51:35.817Z,8.30
2019-02-10T12:54:04.984Z,8.20
2019-02-10T12:56:34.149Z,8.40
2019-02-10T12:59:03.232Z,8.40
2019-02-10T13:01:32.305Z,8.40
2019-02-10T13:06:30.013Z,8.50
2019-02-10T13:08:59.815Z,8.50
2019-02-10T13:11:28.983Z,8.50
2019-02-10T13:13:58.204Z,8.50
2019-02-10T13:16:27.726Z,8.50
2019-02-10T13:18:56.846Z,8.50
2019-02-10T13:21:25.851Z,8.60
2019-02-10T13:23:54.892Z,8.50
2019-02-10T13:26:23.900Z,8.40
2019-02-10T13:28:52.951Z,8.50
2019-02-10T13:31:22.156Z,8.60
2019-02-10T13:33:52.195Z,8.60
2019-02-10T13:36:21.277Z,8.60
2019-02-10T13:38:50.390Z,8.60
2019-02-10T13:41:19.406Z,8.60
2019-02-10T13:43:48.444Z,8.70
2019-02-10T13:46:17.600Z,8.70
2019-02-10T13:48:46.649Z,8.70
2019-02-10T13:51:15.812Z,8.80
2019-02-10T13:53:44.923Z,8.80
2019-02-10T13:56:14.093Z,8.80
2019-02-10T13:58:43.127Z,8.80
2019-02-10T14:01:12.409Z,8.70
2019-02-10T14:03:41.453Z,8.70
2019-02-10T14:06:10.536Z,8.70
2019-02-10T14:08:39.727Z,8.90
2019-02-10T14:11:08.895Z,8.70
2019-02-10T14:13:38.213Z,8.80
2019-02-10T14:16:07.223Z,9.00
2019-02-10T14:18:36.281Z,9.00
2019-02-10T14:21:05.320Z,9.20
2019-02-10T14:23:34.370Z,9.10
2019-02-10T14:26:03.359Z,9.10
2019-02-10T14:31:01.098Z,9.30
2019-02-10T14:33:30.124Z,9.30
2019-02-10T14:35:59.231Z,9.30
2019-02-10T14:38:36.287Z,9.10
2019-02-10T14:40:58.982Z,9.00
2019-02-10T14:43:28.083Z,8.90
2019-02-10T14:45:57.080Z,9.00
2019-02-10T14:48:26.192Z,9.00
2019-02-10T14:50:55.284Z,9.00
2019-02-10T14:53:24.562Z,9.10
2019-02-10T14:55:53.575Z,9.00
2019-02-10T14:58:22.681Z,9.00
2019-02-10T15:00:51.709Z,9.20
2019-02-10T15:03:20.855Z,9.10
2019-02-10T15:05:49.978Z,9.10
2019-02-10T15:08:19.056Z,9.00
2019-02-10T15:10:52.394Z,8.90
2019-02-10T15:13:21.469Z,8.70
2019-02-10T15:15:50.493Z,8.80
2019-02-10T15:18:20.219Z,8.90
2019-02-10T15:20:49.336Z,8.90
2019-02-10T15:23:18.513Z,9.00
2019-02-10T15:25:47.557Z,9.00
2019-02-10T15:28:16.654Z,9.00
2019-02-10T15:30:45.767Z,9.10
2019-02-10T15:33:14.945Z,9.10
2019-02-10T15:35:44.212Z,9.00
2019-02-10T15:38:13.218Z,8.90
2019-02-10T15:40:50.020Z,8.90
2019-02-10T15:43:16.076Z,8.90
2019-02-10T15:45:45.092Z,8.90
2019-02-10T15:48:14.207Z,8.80
2019-02-10T15:50:43.331Z,8.80
2019-02-10T15:53:12.434Z,8.90
2019-02-10T15:55:41.475Z,8.70
2019-02-10T15:58:10.597Z,8.70
2019-02-10T16:00:39.731Z,8.70
2019-02-10T16:03:08.844Z,8.80
2019-02-10T16:05:37.914Z,8.50
2019-02-10T16:08:07.051Z,8.60
2019-02-10T16:10:36.100Z,8.40
2019-02-10T16:13:05.125Z,8.50
2019-02-10T16:15:34.319Z,8.70
2019-02-10T16:18:03.423Z,8.40
2019-02-10T16:20:32.614Z,8.50
2019-02-10T16:23:01.720Z,8.50
2019-02-10T16:25:32.507Z,8.60
2019-02-10T16:30:50.552Z,8.60
2019-02-10T16:33:19.595Z,8.40
2019-02-10T16:35:48.699Z,8.50
2019-02-10T16:38:18.334Z,8.50
2019-02-10T16:40:47.529Z,8.60
2019-02-10T16:43:16.617Z,8.60
2019-02-10T16:45:45.837Z,8.50
2019-02-10T16:48:14.935Z,8.40
2019-02-10T16:50:44.075Z,8.50
2019-02-10T16:53:14.069Z,8.50
2019-02-10T16:55:43.187Z,8.50
2019-02-10T16:58:12.273Z,8.60
2019-02-10T17:00:41.402Z,8.50
2019-02-10T17:03:10.422Z,8.50
2019-02-10T17:05:39.935Z,8.50
2019-02-10T17:08:09.116Z,8.40
2019-02-10T17:10:38.459Z,8.30
2019-02-10T17:13:10.993Z,8.40
2019-02-10T17:15:41.508Z,8.20
2019-02-10T17:18:12.032Z,8.10
2019-02-10T17:20:41.215Z,8.10
2019-02-10T17:23:10.236Z,8.00
2019-02-10T17:25:39.275Z,8.10
2019-02-10T17:28:08.483Z,8.30
2019-02-10T17:30:37.620Z,8.30
2019-02-10T17:33:08.045Z,8.20
2019-02-10T17:35:37.106Z,8.30
2019-02-10T17:38:06.143Z,8.30
2019-02-10T17:40:42.001Z,8.40
2019-02-10T17:43:11.032Z,8.20
2019-02-10T17:45:40.056Z,8.00
2019-02-10T17:48:09.189Z,7.90
2019-02-10T17:50:38.369Z,7.80
2019-02-10T17:53:07.580Z,8.10
2019-02-10T17:55:36.574Z,8.30
2019-02-10T17:58:05.595Z,8.30
2019-02-10T18:00:38.897Z,8.30
2019-02-10T18:03:08.078Z,8.10
2019-02-10T18:05:37.115Z,8.20
2019-02-10T18:08:06.172Z,8.20
2019-02-10T18:10:35.262Z,8.10
2019-02-10T18:13:04.319Z,8.20
2019-02-10T18:15:51.005Z,8.10
2019-02-10T18:18:45.501Z,8.10
2019-02-10T18:21:42.537Z,8.00
2019-02-10T18:24:20.262Z,8.00
2019-02-10T18:27:07.583Z,7.90
2019-02-10T18:29:54.662Z,7.80
2019-02-10T18:32:42.755Z,7.80
2019-02-10T18:35:30.885Z,7.80
2019-02-10T18:38:15.345Z,7.80
2019-02-10T18:41:02.125Z,7.60
2019-02-10T18:43:48.831Z,7.50
2019-02-10T18:46:30.965Z,7.50
2019-02-10T18:49:18.104Z,7.50
2019-02-10T18:52:09.408Z,7.50
2019-02-10T18:54:46.192Z,7.50
2019-02-10T18:57:37.292Z,7.60
2019-02-10T19:00:25.891Z,7.60
2019-02-10T19:03:11.130Z,7.50
2019-02-10T19:06:11.249Z,7.40
2019-02-10T19:09:04.054Z,7.40
2019-02-10T19:11:58.588Z,7.40
2019-02-10T19:14:55.600Z,7.50
2019-02-10T19:17:55.935Z,7.70
2019-02-10T19:20:41.612Z,7.60
2019-02-10T19:23:38.923Z,7.60
2019-02-10T19:26:42.439Z,7.70
2019-02-10T19:29:25.511Z,7.50
2019-02-10T19:32:22.665Z,7.50
2019-02-10T19:35:05.606Z,7.50
2019-02-10T19:37:53.648Z,7.40
2019-02-10T19:40:31.559Z,7.50
2019-02-10T19:43:12.932Z,7.50
2019-02-10T19:45:51.850Z,7.40
2019-02-10T19:48:40.070Z,7.40
2019-02-10T19:51:34.207Z,7.50
2019-02-10T19:54:22.285Z,7.60
2019-02-10T19:57:16.662Z,7.60
2019-02-10T20:00:12.026Z,7.40
2019-02-10T20:03:03.244Z,7.50
2019-02-10T20:05:50.154Z,7.30
2019-02-10T20:08:44.840Z,7.40
2019-02-10T20:11:26.655Z,7.40
2019-02-10T20:14:26.893Z,7.40
2019-02-10T20:17:09.364Z,7.20
2019-02-10T20:19:56.908Z,7.20
2019-02-10T20:22:43.606Z,7.00
2019-02-10T20:25:18.154Z,7.20
2019-02-10T20:28:06.212Z,7.20
2019-02-10T20:30:48.385Z,7.20
2019-02-10T20:33:27.546Z,7.20
2019-02-10T20:36:05.668Z,7.20
2019-02-10T20:41:27.280Z,7.30
2019-02-10T20:44:14.092Z,6.90
2019-02-10T20:46:53.196Z,7.00
2019-02-10T20:49:41.289Z,6.80
2019-02-10T20:52:28.103Z,6.80
2019-02-10T20:55:19.217Z,6.90
2019-02-10T20:58:07.394Z,6.80
2019-02-10T21:00:48.818Z,6.50
2019-02-10T21:03:27.007Z,6.50
2019-02-10T21:06:05.755Z,6.40
2019-02-10T21:08:52.533Z,6.50
2019-02-10T21:11:39.748Z,6.50
2019-02-10T21:14:37.124Z,6.40
2019-02-10T21:17:40.234Z,6.40
2019-02-10T21:20:37.795Z,6.40
2019-02-10T21:23:25.839Z,6.30
2019-02-10T21:26:19.883Z,6.40
2019-02-10T21:29:05.087Z,6.30
2019-02-10T21:31:59.003Z,6.20
2019-02-10T21:34:47.048Z,6.00
2019-02-10T21:37:26.937Z,6.10
2019-02-10T21:40:23.944Z,6.10
2019-02-10T21:43:00.361Z,5.80
2019-02-10T21:45:41.525Z,5.80
2019-02-10T21:48:23.635Z,5.90
2019-02-10T21:50:52.667Z,5.70
2019-02-10T21:53:21.694Z,5.70
2019-02-10T21:55:51.868Z,5.40
2019-02-10T21:58:20.842Z,5.60
2019-02-10T22:00:49.836Z,5.60
2019-02-10T22:03:18.877Z,5.60
2019-02-10T22:05:47.892Z,5.30
2019-02-10T22:08:16.917Z,5.40
2019-02-10T22:10:45.982Z,5.50
2019-02-10T22:13:15.004Z,5.40
2019-02-10T22:15:44.092Z,5.40
2019-02-10T22:18:13.135Z,5.40
2019-02-10T22:20:42.176Z,5.40
2019-02-10T22:23:11.292Z,5.20
2019-02-10T22:25:40.505Z,5.10
2019-02-10T22:28:09.507Z,5.10
2019-02-10T22:30:38.675Z,5.00
2019-02-10T22:33:07.803Z,4.90
2019-02-10T22:35:36.839Z,5.10
2019-02-10T22:38:05.995Z,5.20
2019-02-10T22:40:35.075Z,5.10
2019-02-10T22:43:04.170Z,5.10
2019-02-10T22:45:33.255Z,5.00
2019-02-10T22:48:02.436Z,5.20
2019-02-10T22:50:31.448Z,5.20
2019-02-10T22:53:00.584Z,5.10
2019-02-10T22:55:29.670Z,4.90
2019-02-10T22:57:58.700Z,5.00
2019-02-10T23:00:47.551Z,5.10
2019-02-10T23:03:17.173Z,5.00
2019-02-10T23:05:46.302Z,5.00
2019-02-10T23:08:15.390Z,5.20
2019-02-10T23:10:44.436Z,5.00
2019-02-10T23:13:13.447Z,4.80
2019-02-10T23:15:42.515Z,4.80
2019-02-10T23:18:11.567Z,4.80
2019-02-10T23:20:40.571Z,5.00
2019-02-10T23:23:09.590Z,5.10
2019-02-10T23:25:38.604Z,5.10
2019-02-10T23:28:07.627Z,5.00
2019-02-10T23:30:36.663Z,5.10
2019-02-10T23:33:05.775Z,5.00
2019-02-10T23:35:34.777Z,4.80
2019-02-10T23:38:03.796Z,4.50
2019-02-10T23:40:32.901Z,4.50
2019-02-10T23:43:02.482Z,4.80
2019-02-10T23:45:31.580Z,4.90
2019-02-10T23:48:00.717Z,4.80
2019-02-10T23:50:29.904Z,4.70
2019-02-10T23:52:59.060Z,4.70
2019-02-10T23:55:28.078Z,4.40
2019-02-10T23:57:57.155Z,4.50
